sensor_id;sensor_type;location;lat;lon;timestamp;P1;durP1;ratioP1;P2;durP2;ratioP2
67595;SDS011;54410;48.694;8.934;2022-12-29T00:01:57;2.42;;;1.27;;
67595;SDS011;54410;48.694;8.934;2022-12-29T00:04:23;3.03;;;1.67;;
67595;SDS011;54410;48.694;8.934;2022-12-29T00:09:19;1.30;;;1.20;;
67595;SDS011;54410;48.694;8.934;2022-12-29T00:11:45;1.27;;;1.15;;
67595;SDS011;54410;48.694;8.934;2022-12-29T00:14:11;1.67;;;1.27;;
67595;SDS011;54410;48.694;8.934;2022-12-29T00:16:56;1.90;;;1.40;;
67595;SDS011;54410;48.694;8.934;2022-12-29T00:19:22;3.47;;;1.20;;
67595;SDS011;54410;48.694;8.934;2022-12-29T00:22:10;2.53;;;1.55;;
67595;SDS011;54410;48.694;8.934;2022-12-29T00:24:55;2.47;;;1.40;;
67595;SDS011;54410;48.694;8.934;2022-12-29T00:27:40;2.70;;;1.30;;
67595;SDS011;54410;48.694;8.934;2022-12-29T00:30:24;2.28;;;1.50;;
67595;SDS011;54410;48.694;8.934;2022-12-29T00:33:16;2.10;;;1.60;;
67595;SDS011;54410;48.694;8.934;2022-12-29T00:36:35;2.00;;;1.38;;
67595;SDS011;54410;48.694;8.934;2022-12-29T00:39:01;1.58;;;1.20;;
67595;SDS011;54410;48.694;8.934;2022-12-29T00:41:47;1.05;;;1.02;;
67595;SDS011;54410;48.694;8.934;2022-12-29T00:44:32;1.45;;;1.02;;
67595;SDS011;54410;48.694;8.934;2022-12-29T00:46:58;1.80;;;1.20;;
67595;SDS011;54410;48.694;8.934;2022-12-29T00:49:29;1.10;;;1.00;;
67595;SDS011;54410;48.694;8.934;2022-12-29T00:51:56;1.33;;;1.00;;
67595;SDS011;54410;48.694;8.934;2022-12-29T00:54:26;3.47;;;1.30;;
67595;SDS011;54410;48.694;8.934;2022-12-29T00:56:53;1.45;;;1.23;;
67595;SDS011;54410;48.694;8.934;2022-12-29T00:59:19;2.30;;;0.93;;
67595;SDS011;54410;48.694;8.934;2022-12-29T01:01:45;1.73;;;0.93;;
67595;SDS011;54410;48.694;8.934;2022-12-29T01:04:11;1.35;;;1.13;;
67595;SDS011;54410;48.694;8.934;2022-12-29T01:06:38;2.00;;;1.10;;
67595;SDS011;54410;48.694;8.934;2022-12-29T01:09:05;2.80;;;1.15;;
67595;SDS011;54410;48.694;8.934;2022-12-29T01:11:50;1.38;;;1.23;;
67595;SDS011;54410;48.694;8.934;2022-12-29T01:14:16;2.33;;;1.20;;
67595;SDS011;54410;48.694;8.934;2022-12-29T01:16:42;1.30;;;1.15;;
67595;SDS011;54410;48.694;8.934;2022-12-29T01:19:08;2.45;;;1.25;;
67595;SDS011;54410;48.694;8.934;2022-12-29T01:21:34;1.17;;;0.95;;
67595;SDS011;54410;48.694;8.934;2022-12-29T01:24:00;1.60;;;1.20;;
67595;SDS011;54410;48.694;8.934;2022-12-29T01:26:26;1.42;;;1.00;;
67595;SDS011;54410;48.694;8.934;2022-12-29T01:28:52;2.35;;;1.17;;
67595;SDS011;54410;48.694;8.934;2022-12-29T01:31:18;1.85;;;1.08;;
67595;SDS011;54410;48.694;8.934;2022-12-29T01:33:44;1.75;;;1.58;;
67595;SDS011;54410;48.694;8.934;2022-12-29T01:36:12;1.50;;;1.15;;
67595;SDS011;54410;48.694;8.934;2022-12-29T01:38:38;2.60;;;0.80;;
67595;SDS011;54410;48.694;8.934;2022-12-29T01:41:05;1.20;;;0.90;;
67595;SDS011;54410;48.694;8.934;2022-12-29T01:43:44;2.33;;;1.35;;
67595;SDS011;54410;48.694;8.934;2022-12-29T01:49:37;0.90;;;0.90;;
67595;SDS011;54410;48.694;8.934;2022-12-29T01:51:38;3.28;;;1.00;;
67595;SDS011;54410;48.694;8.934;2022-12-29T01:54:08;1.98;;;0.80;;
67595;SDS011;54410;48.694;8.934;2022-12-29T01:56:34;1.10;;;0.93;;
67595;SDS011;54410;48.694;8.934;2022-12-29T01:59:02;1.27;;;1.00;;
67595;SDS011;54410;48.694;8.934;2022-12-29T02:01:30;1.42;;;1.00;;
67595;SDS011;54410;48.694;8.934;2022-12-29T02:03:56;2.85;;;1.17;;
67595;SDS011;54410;48.694;8.934;2022-12-29T02:06:23;4.03;;;1.10;;
67595;SDS011;54410;48.694;8.934;2022-12-29T02:08:52;1.10;;;1.00;;
67595;SDS011;54410;48.694;8.934;2022-12-29T02:11:19;1.25;;;0.70;;
67595;SDS011;54410;48.694;8.934;2022-12-29T02:13:45;2.47;;;1.20;;
67595;SDS011;54410;48.694;8.934;2022-12-29T02:19:25;1.98;;;0.70;;
67595;SDS011;54410;48.694;8.934;2022-12-29T02:22:02;1.58;;;0.70;;
67595;SDS011;54410;48.694;8.934;2022-12-29T02:24:51;3.08;;;1.10;;
67595;SDS011;54410;48.694;8.934;2022-12-29T02:27:34;1.60;;;0.95;;
67595;SDS011;54410;48.694;8.934;2022-12-29T02:30:12;1.33;;;0.70;;
67595;SDS011;54410;48.694;8.934;2022-12-29T02:43:14;1.60;;;0.65;;
67595;SDS011;54410;48.694;8.934;2022-12-29T02:51:00;1.38;;;1.00;;
67595;SDS011;54410;48.694;8.934;2022-12-29T02:53:27;0.93;;;0.80;;
67595;SDS011;54410;48.694;8.934;2022-12-29T02:56:13;0.57;;;0.57;;
67595;SDS011;54410;48.694;8.934;2022-12-29T02:58:39;0.95;;;0.70;;
67595;SDS011;54410;48.694;8.934;2022-12-29T03:01:10;2.85;;;1.08;;
67595;SDS011;54410;48.694;8.934;2022-12-29T03:11:14;1.15;;;0.80;;
67595;SDS011;54410;48.694;8.934;2022-12-29T03:14:12;3.58;;;0.80;;
67595;SDS011;54410;48.694;8.934;2022-12-29T03:17:01;2.35;;;0.90;;
67595;SDS011;54410;48.694;8.934;2022-12-29T03:19:35;1.15;;;0.60;;
67595;SDS011;54410;48.694;8.934;2022-12-29T03:22:05;2.03;;;0.90;;
67595;SDS011;54410;48.694;8.934;2022-12-29T03:24:52;1.77;;;0.88;;
67595;SDS011;54410;48.694;8.934;2022-12-29T03:27:21;1.35;;;0.70;;
67595;SDS011;54410;48.694;8.934;2022-12-29T03:29:50;0.60;;;0.60;;
67595;SDS011;54410;48.694;8.934;2022-12-29T03:32:18;1.33;;;0.68;;
67595;SDS011;54410;48.694;8.934;2022-12-29T03:34:45;1.20;;;1.10;;
67595;SDS011;54410;48.694;8.934;2022-12-29T03:37:13;2.38;;;0.73;;
67595;SDS011;54410;48.694;8.934;2022-12-29T03:39:40;1.20;;;0.80;;
67595;SDS011;54410;48.694;8.934;2022-12-29T03:42:09;1.73;;;0.80;;
67595;SDS011;54410;48.694;8.934;2022-12-29T03:44:38;0.95;;;0.70;;
67595;SDS011;54410;48.694;8.934;2022-12-29T03:47:05;1.25;;;0.85;;
67595;SDS011;54410;48.694;8.934;2022-12-29T03:49:31;2.35;;;0.88;;
67595;SDS011;54410;48.694;8.934;2022-12-29T03:51:57;4.57;;;1.10;;
67595;SDS011;54410;48.694;8.934;2022-12-29T03:54:24;2.65;;;0.93;;
67595;SDS011;54410;48.694;8.934;2022-12-29T03:56:50;1.38;;;1.00;;
67595;SDS011;54410;48.694;8.934;2022-12-29T03:59:16;1.58;;;0.85;;
67595;SDS011;54410;48.694;8.934;2022-12-29T04:01:42;2.85;;;1.10;;
67595;SDS011;54410;48.694;8.934;2022-12-29T04:04:08;1.55;;;0.90;;
67595;SDS011;54410;48.694;8.934;2022-12-29T04:06:34;1.45;;;0.98;;
67595;SDS011;54410;48.694;8.934;2022-12-29T04:09:00;0.70;;;0.70;;
67595;SDS011;54410;48.694;8.934;2022-12-29T04:11:26;1.60;;;0.93;;
67595;SDS011;54410;48.694;8.934;2022-12-29T04:13:52;1.73;;;1.00;;
67595;SDS011;54410;48.694;8.934;2022-12-29T04:16:18;1.40;;;0.90;;
67595;SDS011;54410;48.694;8.934;2022-12-29T04:18:44;1.55;;;1.20;;
67595;SDS011;54410;48.694;8.934;2022-12-29T04:21:10;1.05;;;1.00;;
67595;SDS011;54410;48.694;8.934;2022-12-29T04:23:37;1.67;;;0.88;;
67595;SDS011;54410;48.694;8.934;2022-12-29T04:26:03;1.58;;;1.10;;
67595;SDS011;54410;48.694;8.934;2022-12-29T04:28:31;1.75;;;1.05;;
67595;SDS011;54410;48.694;8.934;2022-12-29T04:30:57;1.00;;;0.90;;
67595;SDS011;54410;48.694;8.934;2022-12-29T04:33:23;1.52;;;0.80;;
67595;SDS011;54410;48.694;8.934;2022-12-29T04:35:49;0.98;;;0.98;;
67595;SDS011;54410;48.694;8.934;2022-12-29T04:38:17;0.95;;;0.88;;
67595;SDS011;54410;48.694;8.934;2022-12-29T04:40:43;2.10;;;1.13;;
67595;SDS011;54410;48.694;8.934;2022-12-29T04:43:09;1.35;;;1.00;;
67595;SDS011;54410;48.694;8.934;2022-12-29T04:45:35;1.67;;;1.25;;
67595;SDS011;54410;48.694;8.934;2022-12-29T04:48:01;1.55;;;1.10;;
67595;SDS011;54410;48.694;8.934;2022-12-29T04:50:27;1.80;;;1.10;;
67595;SDS011;54410;48.694;8.934;2022-12-29T04:52:53;2.33;;;1.45;;
67595;SDS011;54410;48.694;8.934;2022-12-29T04:55:19;1.98;;;1.13;;
67595;SDS011;54410;48.694;8.934;2022-12-29T04:57:45;1.48;;;0.98;;
67595;SDS011;54410;48.694;8.934;2022-12-29T05:00:11;3.67;;;1.20;;
67595;SDS011;54410;48.694;8.934;2022-12-29T05:02:38;0.73;;;0.73;;
67595;SDS011;54410;48.694;8.934;2022-12-29T05:05:04;4.60;;;1.20;;
67595;SDS011;54410;48.694;8.934;2022-12-29T05:07:30;1.23;;;1.08;;
67595;SDS011;54410;48.694;8.934;2022-12-29T05:09:58;3.88;;;1.27;;
67595;SDS011;54410;48.694;8.934;2022-12-29T05:12:24;2.90;;;1.30;;
67595;SDS011;54410;48.694;8.934;2022-12-29T05:14:50;3.88;;;1.40;;
67595;SDS011;54410;48.694;8.934;2022-12-29T05:17:16;1.88;;;1.10;;
67595;SDS011;54410;48.694;8.934;2022-12-29T05:19:42;1.98;;;1.20;;
67595;SDS011;54410;48.694;8.934;2022-12-29T05:22:08;4.47;;;1.00;;
67595;SDS011;54410;48.694;8.934;2022-12-29T05:24:34;1.55;;;1.02;;
67595;SDS011;54410;48.694;8.934;2022-12-29T05:27:00;2.25;;;1.45;;
67595;SDS011;54410;48.694;8.934;2022-12-29T05:29:26;2.55;;;1.30;;
67595;SDS011;54410;48.694;8.934;2022-12-29T05:31:52;3.38;;;1.05;;
67595;SDS011;54410;48.694;8.934;2022-12-29T05:34:18;1.13;;;0.90;;
67595;SDS011;54410;48.694;8.934;2022-12-29T05:36:44;2.58;;;1.23;;
67595;SDS011;54410;48.694;8.934;2022-12-29T05:39:10;1.48;;;0.93;;
67595;SDS011;54410;48.694;8.934;2022-12-29T05:41:36;1.38;;;1.27;;
67595;SDS011;54410;48.694;8.934;2022-12-29T05:44:02;1.55;;;1.42;;
67595;SDS011;54410;48.694;8.934;2022-12-29T05:46:28;2.50;;;1.40;;
67595;SDS011;54410;48.694;8.934;2022-12-29T05:48:54;1.70;;;1.55;;
67595;SDS011;54410;48.694;8.934;2022-12-29T05:51:20;3.40;;;1.50;;
67595;SDS011;54410;48.694;8.934;2022-12-29T05:53:46;1.30;;;1.05;;
67595;SDS011;54410;48.694;8.934;2022-12-29T05:56:12;2.40;;;1.23;;
67595;SDS011;54410;48.694;8.934;2022-12-29T05:58:38;1.40;;;1.20;;
67595;SDS011;54410;48.694;8.934;2022-12-29T06:01:04;1.10;;;1.00;;
67595;SDS011;54410;48.694;8.934;2022-12-29T06:03:30;2.45;;;1.08;;
67595;SDS011;54410;48.694;8.934;2022-12-29T06:05:56;2.38;;;1.50;;
67595;SDS011;54410;48.694;8.934;2022-12-29T06:08:22;1.98;;;1.08;;
67595;SDS011;54410;48.694;8.934;2022-12-29T06:10:48;1.88;;;1.20;;
67595;SDS011;54410;48.694;8.934;2022-12-29T06:13:14;2.17;;;1.20;;
67595;SDS011;54410;48.694;8.934;2022-12-29T06:15:40;1.23;;;1.00;;
67595;SDS011;54410;48.694;8.934;2022-12-29T06:18:06;1.67;;;1.15;;
67595;SDS011;54410;48.694;8.934;2022-12-29T06:20:32;1.48;;;1.00;;
67595;SDS011;54410;48.694;8.934;2022-12-29T06:22:58;2.22;;;1.20;;
67595;SDS011;54410;48.694;8.934;2022-12-29T06:25:24;1.08;;;0.98;;
67595;SDS011;54410;48.694;8.934;2022-12-29T06:27:50;2.05;;;1.10;;
67595;SDS011;54410;48.694;8.934;2022-12-29T06:30:16;4.53;;;1.10;;
67595;SDS011;54410;48.694;8.934;2022-12-29T06:32:42;4.47;;;1.23;;
67595;SDS011;54410;48.694;8.934;2022-12-29T06:35:08;2.80;;;1.10;;
67595;SDS011;54410;48.694;8.934;2022-12-29T06:37:34;1.85;;;1.05;;
67595;SDS011;54410;48.694;8.934;2022-12-29T06:40:00;2.00;;;1.10;;
67595;SDS011;54410;48.694;8.934;2022-12-29T06:42:26;3.45;;;1.20;;
67595;SDS011;54410;48.694;8.934;2022-12-29T06:44:52;0.98;;;0.98;;
67595;SDS011;54410;48.694;8.934;2022-12-29T06:47:18;3.15;;;1.30;;
67595;SDS011;54410;48.694;8.934;2022-12-29T06:49:44;2.90;;;1.30;;
67595;SDS011;54410;48.694;8.934;2022-12-29T06:52:10;1.65;;;1.23;;
67595;SDS011;54410;48.694;8.934;2022-12-29T06:54:36;0.90;;;0.88;;
67595;SDS011;54410;48.694;8.934;2022-12-29T06:57:02;1.83;;;1.23;;
67595;SDS011;54410;48.694;8.934;2022-12-29T06:59:28;1.58;;;1.20;;
67595;SDS011;54410;48.694;8.934;2022-12-29T07:01:54;1.42;;;1.25;;
67595;SDS011;54410;48.694;8.934;2022-12-29T07:04:20;1.30;;;1.17;;
67595;SDS011;54410;48.694;8.934;2022-12-29T07:06:46;1.38;;;1.05;;
67595;SDS011;54410;48.694;8.934;2022-12-29T07:09:11;1.25;;;1.10;;
67595;SDS011;54410;48.694;8.934;2022-12-29T07:11:37;1.35;;;1.00;;
67595;SDS011;54410;48.694;8.934;2022-12-29T07:14:03;1.73;;;1.10;;
67595;SDS011;54410;48.694;8.934;2022-12-29T07:16:29;2.97;;;1.55;;
67595;SDS011;54410;48.694;8.934;2022-12-29T07:18:56;1.27;;;1.17;;
67595;SDS011;54410;48.694;8.934;2022-12-29T07:21:22;1.00;;;0.98;;
67595;SDS011;54410;48.694;8.934;2022-12-29T07:23:48;1.58;;;1.40;;
67595;SDS011;54410;48.694;8.934;2022-12-29T07:26:14;2.10;;;1.60;;
67595;SDS011;54410;48.694;8.934;2022-12-29T07:28:42;1.00;;;0.90;;
67595;SDS011;54410;48.694;8.934;2022-12-29T07:31:13;1.48;;;1.10;;
67595;SDS011;54410;48.694;8.934;2022-12-29T07:33:40;3.17;;;1.63;;
67595;SDS011;54410;48.694;8.934;2022-12-29T07:36:06;3.78;;;2.00;;
67595;SDS011;54410;48.694;8.934;2022-12-29T07:38:32;2.53;;;1.60;;
67595;SDS011;54410;48.694;8.934;2022-12-29T07:40:58;2.67;;;1.75;;
67595;SDS011;54410;48.694;8.934;2022-12-29T07:43:24;2.03;;;1.60;;
67595;SDS011;54410;48.694;8.934;2022-12-29T07:45:50;1.85;;;1.25;;
67595;SDS011;54410;48.694;8.934;2022-12-29T07:48:16;2.65;;;1.65;;
67595;SDS011;54410;48.694;8.934;2022-12-29T07:50:42;2.10;;;1.30;;
67595;SDS011;54410;48.694;8.934;2022-12-29T07:53:08;1.90;;;1.20;;
67595;SDS011;54410;48.694;8.934;2022-12-29T07:55:34;2.85;;;1.05;;
67595;SDS011;54410;48.694;8.934;2022-12-29T07:58:00;1.60;;;1.20;;
67595;SDS011;54410;48.694;8.934;2022-12-29T08:00:26;2.38;;;1.27;;
67595;SDS011;54410;48.694;8.934;2022-12-29T08:02:52;1.25;;;1.15;;
67595;SDS011;54410;48.694;8.934;2022-12-29T08:05:18;1.30;;;1.20;;
67595;SDS011;54410;48.694;8.934;2022-12-29T08:07:45;1.40;;;1.30;;
67595;SDS011;54410;48.694;8.934;2022-12-29T08:10:11;2.05;;;1.50;;
67595;SDS011;54410;48.694;8.934;2022-12-29T08:12:38;2.03;;;1.80;;
67595;SDS011;54410;48.694;8.934;2022-12-29T08:15:05;3.67;;;1.33;;
67595;SDS011;54410;48.694;8.934;2022-12-29T08:17:31;1.60;;;1.23;;
67595;SDS011;54410;48.694;8.934;2022-12-29T08:19:57;1.60;;;1.40;;
67595;SDS011;54410;48.694;8.934;2022-12-29T08:22:23;2.25;;;1.02;;
67595;SDS011;54410;48.694;8.934;2022-12-29T08:24:49;3.05;;;1.15;;
67595;SDS011;54410;48.694;8.934;2022-12-29T08:27:16;3.58;;;1.40;;
67595;SDS011;54410;48.694;8.934;2022-12-29T08:29:42;0.90;;;0.88;;
67595;SDS011;54410;48.694;8.934;2022-12-29T08:32:08;2.88;;;1.25;;
67595;SDS011;54410;48.694;8.934;2022-12-29T08:34:34;1.75;;;1.17;;
67595;SDS011;54410;48.694;8.934;2022-12-29T08:37:00;1.90;;;1.50;;
67595;SDS011;54410;48.694;8.934;2022-12-29T08:39:25;1.55;;;1.13;;
67595;SDS011;54410;48.694;8.934;2022-12-29T08:41:52;2.15;;;1.10;;
67595;SDS011;54410;48.694;8.934;2022-12-29T08:44:17;1.10;;;1.00;;
67595;SDS011;54410;48.694;8.934;2022-12-29T08:46:43;3.88;;;0.98;;
67595;SDS011;54410;48.694;8.934;2022-12-29T08:49:09;2.75;;;1.15;;
67595;SDS011;54410;48.694;8.934;2022-12-29T08:51:36;1.02;;;0.90;;
67595;SDS011;54410;48.694;8.934;2022-12-29T08:54:02;1.42;;;1.00;;
67595;SDS011;54410;48.694;8.934;2022-12-29T08:56:28;1.35;;;1.25;;
67595;SDS011;54410;48.694;8.934;2022-12-29T08:58:54;1.23;;;0.90;;
67595;SDS011;54410;48.694;8.934;2022-12-29T09:01:20;1.13;;;1.00;;
67595;SDS011;54410;48.694;8.934;2022-12-29T09:03:46;1.67;;;0.90;;
67595;SDS011;54410;48.694;8.934;2022-12-29T09:06:12;3.70;;;1.00;;
67595;SDS011;54410;48.694;8.934;2022-12-29T09:08:39;2.17;;;1.13;;
67595;SDS011;54410;48.694;8.934;2022-12-29T09:11:08;1.48;;;0.98;;
67595;SDS011;54410;48.694;8.934;2022-12-29T09:13:34;1.38;;;1.10;;
67595;SDS011;54410;48.694;8.934;2022-12-29T09:16:01;1.77;;;1.00;;
67595;SDS011;54410;48.694;8.934;2022-12-29T09:18:27;2.47;;;0.80;;
67595;SDS011;54410;48.694;8.934;2022-12-29T09:21:00;0.77;;;0.77;;
67595;SDS011;54410;48.694;8.934;2022-12-29T09:23:26;1.85;;;0.90;;
67595;SDS011;54410;48.694;8.934;2022-12-29T09:25:53;1.58;;;0.98;;
67595;SDS011;54410;48.694;8.934;2022-12-29T09:28:19;2.85;;;1.08;;
67595;SDS011;54410;48.694;8.934;2022-12-29T09:30:45;1.48;;;0.98;;
67595;SDS011;54410;48.694;8.934;2022-12-29T09:33:11;1.75;;;1.15;;
67595;SDS011;54410;48.694;8.934;2022-12-29T09:35:40;2.17;;;0.82;;
67595;SDS011;54410;48.694;8.934;2022-12-29T09:38:06;1.98;;;1.10;;
67595;SDS011;54410;48.694;8.934;2022-12-29T09:40:32;1.05;;;0.85;;
67595;SDS011;54410;48.694;8.934;2022-12-29T09:45:40;0.95;;;0.73;;
67595;SDS011;54410;48.694;8.934;2022-12-29T09:48:51;3.00;;;0.90;;
67595;SDS011;54410;48.694;8.934;2022-12-29T09:50:59;1.13;;;0.75;;
67595;SDS011;54410;48.694;8.934;2022-12-29T09:53:36;1.90;;;1.15;;
67595;SDS011;54410;48.694;8.934;2022-12-29T09:56:03;0.90;;;0.90;;
67595;SDS011;54410;48.694;8.934;2022-12-29T09:58:41;1.00;;;0.90;;
67595;SDS011;54410;48.694;8.934;2022-12-29T10:03:52;1.00;;;0.82;;
67595;SDS011;54410;48.694;8.934;2022-12-29T10:09:17;1.50;;;1.05;;
67595;SDS011;54410;48.694;8.934;2022-12-29T10:17:34;2.03;;;0.90;;
67595;SDS011;54410;48.694;8.934;2022-12-29T10:22:38;2.47;;;1.80;;
67595;SDS011;54410;48.694;8.934;2022-12-29T10:25:12;1.63;;;1.38;;
67595;SDS011;54410;48.694;8.934;2022-12-29T10:27:40;2.45;;;1.10;;
67595;SDS011;54410;48.694;8.934;2022-12-29T10:30:10;2.00;;;1.10;;
67595;SDS011;54410;48.694;8.934;2022-12-29T10:32:38;1.10;;;1.00;;
67595;SDS011;54410;48.694;8.934;2022-12-29T10:40:36;0.73;;;0.70;;
67595;SDS011;54410;48.694;8.934;2022-12-29T10:43:07;2.55;;;1.20;;
67595;SDS011;54410;48.694;8.934;2022-12-29T10:45:38;1.73;;;0.88;;
67595;SDS011;54410;48.694;8.934;2022-12-29T10:48:09;2.85;;;1.27;;
67595;SDS011;54410;48.694;8.934;2022-12-29T10:50:40;1.10;;;1.00;;
67595;SDS011;54410;48.694;8.934;2022-12-29T10:53:07;0.93;;;0.90;;
67595;SDS011;54410;48.694;8.934;2022-12-29T10:55:38;0.80;;;0.80;;
67595;SDS011;54410;48.694;8.934;2022-12-29T10:58:07;0.75;;;0.65;;
67595;SDS011;54410;48.694;8.934;2022-12-29T11:00:37;4.20;;;0.80;;
67595;SDS011;54410;48.694;8.934;2022-12-29T11:03:10;0.90;;;0.80;;
67595;SDS011;54410;48.694;8.934;2022-12-29T11:08:21;1.05;;;0.95;;
67595;SDS011;54410;48.694;8.934;2022-12-29T11:11:05;1.15;;;0.95;;
67595;SDS011;54410;48.694;8.934;2022-12-29T11:13:33;1.95;;;0.90;;
67595;SDS011;54410;48.694;8.934;2022-12-29T11:16:00;1.83;;;1.10;;
67595;SDS011;54410;48.694;8.934;2022-12-29T11:21:02;1.48;;;0.90;;
67595;SDS011;54410;48.694;8.934;2022-12-29T11:23:39;1.52;;;1.20;;
67595;SDS011;54410;48.694;8.934;2022-12-29T11:28:38;3.30;;;1.20;;
67595;SDS011;54410;48.694;8.934;2022-12-29T11:31:05;1.02;;;0.90;;
67595;SDS011;54410;48.694;8.934;2022-12-29T11:33:32;0.98;;;0.90;;
67595;SDS011;54410;48.694;8.934;2022-12-29T11:35:59;0.82;;;0.82;;
67595;SDS011;54410;48.694;8.934;2022-12-29T11:38:31;2.55;;;1.02;;
67595;SDS011;54410;48.694;8.934;2022-12-29T11:40:59;1.40;;;1.13;;
67595;SDS011;54410;48.694;8.934;2022-12-29T11:43:30;2.35;;;1.13;;
67595;SDS011;54410;48.694;8.934;2022-12-29T11:45:58;1.25;;;0.93;;
67595;SDS011;54410;48.694;8.934;2022-12-29T11:48:28;1.17;;;1.05;;
67595;SDS011;54410;48.694;8.934;2022-12-29T11:50:55;1.30;;;1.05;;
67595;SDS011;54410;48.694;8.934;2022-12-29T11:53:39;2.95;;;1.10;;
67595;SDS011;54410;48.694;8.934;2022-12-29T11:56:15;2.00;;;1.80;;
67595;SDS011;54410;48.694;8.934;2022-12-29T11:58:47;1.48;;;1.00;;
67595;SDS011;54410;48.694;8.934;2022-12-29T12:01:17;1.23;;;0.95;;
67595;SDS011;54410;48.694;8.934;2022-12-29T12:03:53;1.45;;;1.00;;
67595;SDS011;54410;48.694;8.934;2022-12-29T12:06:20;1.85;;;1.00;;
67595;SDS011;54410;48.694;8.934;2022-12-29T12:08:56;1.67;;;1.20;;
67595;SDS011;54410;48.694;8.934;2022-12-29T12:11:30;2.38;;;1.10;;
67595;SDS011;54410;48.694;8.934;2022-12-29T12:16:46;3.13;;;1.05;;
67595;SDS011;54410;48.694;8.934;2022-12-29T12:19:15;1.63;;;1.00;;
67595;SDS011;54410;48.694;8.934;2022-12-29T12:21:50;1.13;;;1.02;;
67595;SDS011;54410;48.694;8.934;2022-12-29T12:27:20;5.63;;;1.23;;
67595;SDS011;54410;48.694;8.934;2022-12-29T12:33:24;1.90;;;0.98;;
67595;SDS011;54410;48.694;8.934;2022-12-29T12:35:44;1.52;;;1.38;;
67595;SDS011;54410;48.694;8.934;2022-12-29T12:38:15;2.65;;;1.27;;
67595;SDS011;54410;48.694;8.934;2022-12-29T12:43:34;1.58;;;1.20;;
67595;SDS011;54410;48.694;8.934;2022-12-29T12:46:39;1.42;;;1.25;;
67595;SDS011;54410;48.694;8.934;2022-12-29T12:48:59;1.88;;;1.48;;
67595;SDS011;54410;48.694;8.934;2022-12-29T12:51:32;2.92;;;1.40;;
67595;SDS011;54410;48.694;8.934;2022-12-29T12:56:46;1.80;;;1.13;;
67595;SDS011;54410;48.694;8.934;2022-12-29T13:04:20;1.83;;;1.08;;
67595;SDS011;54410;48.694;8.934;2022-12-29T13:07:01;0.85;;;0.85;;
67595;SDS011;54410;48.694;8.934;2022-12-29T13:12:14;2.08;;;1.23;;
67595;SDS011;54410;48.694;8.934;2022-12-29T13:14:47;2.58;;;1.17;;
67595;SDS011;54410;48.694;8.934;2022-12-29T13:17:32;3.67;;;1.13;;
67595;SDS011;54410;48.694;8.934;2022-12-29T13:25:24;3.60;;;1.63;;
67595;SDS011;54410;48.694;8.934;2022-12-29T13:28:03;1.02;;;1.00;;
67595;SDS011;54410;48.694;8.934;2022-12-29T13:33:17;4.57;;;1.25;;
67595;SDS011;54410;48.694;8.934;2022-12-29T13:40:44;2.20;;;1.10;;
67595;SDS011;54410;48.694;8.934;2022-12-29T13:43:11;1.50;;;1.23;;
67595;SDS011;54410;48.694;8.934;2022-12-29T13:45:38;2.15;;;1.30;;
67595;SDS011;54410;48.694;8.934;2022-12-29T13:48:06;1.50;;;1.33;;
67595;SDS011;54410;48.694;8.934;2022-12-29T13:50:34;1.30;;;1.08;;
67595;SDS011;54410;48.694;8.934;2022-12-29T13:53:14;1.88;;;1.30;;
67595;SDS011;54410;48.694;8.934;2022-12-29T13:56:25;1.98;;;1.58;;
67595;SDS011;54410;48.694;8.934;2022-12-29T13:58:37;1.77;;;0.93;;
67595;SDS011;54410;48.694;8.934;2022-12-29T14:01:09;3.40;;;1.30;;
67595;SDS011;54410;48.694;8.934;2022-12-29T14:03:43;1.60;;;1.50;;
67595;SDS011;54410;48.694;8.934;2022-12-29T14:06:25;1.38;;;1.20;;
67595;SDS011;54410;48.694;8.934;2022-12-29T14:11:22;2.75;;;1.20;;
67595;SDS011;54410;48.694;8.934;2022-12-29T14:13:49;3.03;;;1.55;;
67595;SDS011;54410;48.694;8.934;2022-12-29T14:16:32;2.05;;;1.35;;
67595;SDS011;54410;48.694;8.934;2022-12-29T14:19:08;1.60;;;1.50;;
67595;SDS011;54410;48.694;8.934;2022-12-29T14:21:35;1.20;;;1.10;;
67595;SDS011;54410;48.694;8.934;2022-12-29T14:26:47;1.40;;;0.93;;
67595;SDS011;54410;48.694;8.934;2022-12-29T14:31:51;2.08;;;1.45;;
67595;SDS011;54410;48.694;8.934;2022-12-29T14:37:01;4.20;;;1.27;;
67595;SDS011;54410;48.694;8.934;2022-12-29T14:42:01;1.60;;;1.30;;
67595;SDS011;54410;48.694;8.934;2022-12-29T14:44:29;1.20;;;1.10;;
67595;SDS011;54410;48.694;8.934;2022-12-29T14:49:27;2.42;;;1.17;;
67595;SDS011;54410;48.694;8.934;2022-12-29T14:52:04;2.80;;;1.48;;
67595;SDS011;54410;48.694;8.934;2022-12-29T14:56:59;4.00;;;2.35;;
67595;SDS011;54410;48.694;8.934;2022-12-29T14:59:27;1.88;;;1.33;;
67595;SDS011;54410;48.694;8.934;2022-12-29T15:01:55;2.25;;;1.88;;
67595;SDS011;54410;48.694;8.934;2022-12-29T15:04:22;1.67;;;1.25;;
67595;SDS011;54410;48.694;8.934;2022-12-29T15:06:51;3.05;;;1.70;;
67595;SDS011;54410;48.694;8.934;2022-12-29T15:09:37;1.40;;;1.30;;
67595;SDS011;54410;48.694;8.934;2022-12-29T15:14:53;1.45;;;1.35;;
67595;SDS011;54410;48.694;8.934;2022-12-29T15:19:52;2.20;;;1.80;;
67595;SDS011;54410;48.694;8.934;2022-12-29T15:22:18;2.42;;;1.70;;
67595;SDS011;54410;48.694;8.934;2022-12-29T15:24:45;2.17;;;1.58;;
67595;SDS011;54410;48.694;8.934;2022-12-29T15:27:14;2.47;;;1.80;;
67595;SDS011;54410;48.694;8.934;2022-12-29T15:29:42;3.50;;;1.77;;
67595;SDS011;54410;48.694;8.934;2022-12-29T15:32:16;2.13;;;1.80;;
67595;SDS011;54410;48.694;8.934;2022-12-29T15:34:44;2.88;;;1.73;;
67595;SDS011;54410;48.694;8.934;2022-12-29T15:37:16;1.95;;;1.83;;
67595;SDS011;54410;48.694;8.934;2022-12-29T15:39:43;1.52;;;1.42;;
67595;SDS011;54410;48.694;8.934;2022-12-29T15:44:53;2.35;;;1.65;;
67595;SDS011;54410;48.694;8.934;2022-12-29T15:47:21;3.33;;;2.00;;
67595;SDS011;54410;48.694;8.934;2022-12-29T15:49:49;3.80;;;2.00;;
67595;SDS011;54410;48.694;8.934;2022-12-29T15:52:19;2.08;;;1.30;;
67595;SDS011;54410;48.694;8.934;2022-12-29T15:54:46;2.35;;;1.75;;
67595;SDS011;54410;48.694;8.934;2022-12-29T15:57:21;1.67;;;1.02;;
67595;SDS011;54410;48.694;8.934;2022-12-29T15:59:47;3.17;;;1.00;;
67595;SDS011;54410;48.694;8.934;2022-12-29T16:02:16;1.77;;;1.00;;
67595;SDS011;54410;48.694;8.934;2022-12-29T16:04:45;0.90;;;0.90;;
67595;SDS011;54410;48.694;8.934;2022-12-29T16:07:27;0.70;;;0.57;;
67595;SDS011;54410;48.694;8.934;2022-12-29T16:09:54;0.82;;;0.82;;
67595;SDS011;54410;48.694;8.934;2022-12-29T16:12:24;0.70;;;0.70;;
67595;SDS011;54410;48.694;8.934;2022-12-29T16:14:56;1.20;;;0.82;;
67595;SDS011;54410;48.694;8.934;2022-12-29T16:17:27;1.08;;;0.65;;
67595;SDS011;54410;48.694;8.934;2022-12-29T16:19:58;1.23;;;0.80;;
67595;SDS011;54410;48.694;8.934;2022-12-29T16:22:27;2.15;;;1.27;;
67595;SDS011;54410;48.694;8.934;2022-12-29T16:24:56;2.15;;;1.20;;
67595;SDS011;54410;48.694;8.934;2022-12-29T16:27:29;2.33;;;1.70;;
67595;SDS011;54410;48.694;8.934;2022-12-29T16:29:57;7.90;;;5.45;;
67595;SDS011;54410;48.694;8.934;2022-12-29T16:34:49;2.88;;;2.38;;
67595;SDS011;54410;48.694;8.934;2022-12-29T16:37:30;1.48;;;1.30;;
67595;SDS011;54410;48.694;8.934;2022-12-29T16:39:56;1.45;;;1.10;;
67595;SDS011;54410;48.694;8.934;2022-12-29T16:50:38;2.05;;;0.82;;
67595;SDS011;54410;48.694;8.934;2022-12-29T16:53:05;0.90;;;0.90;;
67595;SDS011;54410;48.694;8.934;2022-12-29T16:55:32;1.25;;;0.82;;
67595;SDS011;54410;48.694;8.934;2022-12-29T16:57:58;1.50;;;1.33;;
67595;SDS011;54410;48.694;8.934;2022-12-29T17:00:28;1.90;;;1.70;;
67595;SDS011;54410;48.694;8.934;2022-12-29T17:02:56;5.20;;;3.20;;
67595;SDS011;54410;48.694;8.934;2022-12-29T17:05:22;5.30;;;3.72;;
67595;SDS011;54410;48.694;8.934;2022-12-29T17:07:48;7.82;;;4.72;;
67595;SDS011;54410;48.694;8.934;2022-12-29T17:10:16;8.90;;;4.65;;
67595;SDS011;54410;48.694;8.934;2022-12-29T17:12:43;7.75;;;5.35;;
67595;SDS011;54410;48.694;8.934;2022-12-29T17:15:30;9.32;;;6.10;;